PWSweather.com
Personal Weather Stations
Station Observations
MENWDWX1
Menstrie, ScotlandGB

MenstrieScotlandGB

Lat: 56.148322, Lon: -3.85483

Elevation: 62

Station Type: Davis Vantage Pro 2

High Low Average
Temperature 65.7°F18.7°C 52.6°F11.4°C 58.6°F14.8°C
Dew Point 52.7°F11.5°C 46.7°F8.2°C 49.4°F9.7°C
Winds 13.8 mph 22.2 kmh Calm Calm 7.0 mph WSW11.3 kmh WSW
Wind Gusts 26.5 mph42.6 kmh -- 11.0 mph17.7 kmh
Humidity 90% 52% 72%
Pressure 30.14 in1020.7 mb 29.96 in1014.6 mb -
Precipitation 0.00 in0.0 mm - -
Hour Temp Dew Point Humidity Winds Wind Gusts Pressure Precip Precip Rate Daily Precip Total
12:00 AM 55.6°F13.1°C 51.2°F10.7°C 85% 3.5 mph W5.6 kmh W 5.8 mph9.3 kmh 29.96 in1014.6 mb - 0.00 in0.0 mm 0.00 in0.0 mm
12:05 AM 55.6°F13.1°C 51.1°F10.6°C 85% 3.5 mph WSW5.6 kmh WSW 8.1 mph13.0 kmh 29.97 in1014.9 mb - 0.00 in0.0 mm 0.00 in0.0 mm
12:10 AM 55.5°F13.1°C 51.1°F10.6°C 85% 3.5 mph W5.6 kmh W 8.1 mph13.0 kmh 29.97 in1014.9 mb - 0.00 in0.0 mm 0.00 in0.0 mm
12:15 AM 55.4°F13.0°C 51.0°F10.6°C 85% 4.6 mph W7.4 kmh W 8.1 mph13.0 kmh 29.98 in1015.2 mb - 0.00 in0.0 mm 0.00 in0.0 mm
12:20 AM 55.3°F12.9°C 50.6°F10.3°C 84% 4.6 mph W7.4 kmh W 10.4 mph16.7 kmh 29.98 in1015.2 mb - 0.00 in0.0 mm 0.00 in0.0 mm
12:25 AM 55.3°F12.9°C 50.6°F10.3°C 84% 4.6 mph W7.4 kmh W 8.1 mph13.0 kmh 29.98 in1015.2 mb - 0.00 in0.0 mm 0.00 in0.0 mm
12:30 AM 55.3°F12.9°C 50.5°F10.3°C 84% 3.5 mph W5.6 kmh W 9.2 mph14.8 kmh 29.98 in1015.2 mb - 0.00 in0.0 mm 0.00 in0.0 mm
12:35 AM 55.1°F12.8°C 50.4°F10.2°C 84% 3.5 mph W5.6 kmh W 8.1 mph13.0 kmh 29.97 in1014.9 mb - 0.00 in0.0 mm 0.00 in0.0 mm
12:40 AM 54.9°F12.7°C 50.5°F10.3°C 85% 2.3 mph WNW3.7 kmh WNW 3.5 mph5.6 kmh 29.97 in1014.9 mb - 0.00 in0.0 mm 0.00 in0.0 mm
12:45 AM 54.7°F12.6°C 50.3°F10.2°C 85% 2.3 mph WSW3.7 kmh WSW 6.9 mph11.1 kmh 29.98 in1015.2 mb - 0.00 in0.0 mm 0.00 in0.0 mm
12:50 AM 54.6°F12.6°C 50.2°F10.1°C 85% 2.3 mph W3.7 kmh W 5.8 mph9.3 kmh 29.98 in1015.2 mb - 0.00 in0.0 mm 0.00 in0.0 mm
12:55 AM 54.5°F12.5°C 50.4°F10.2°C 86% 2.3 mph WNW3.7 kmh WNW 4.6 mph7.4 kmh 29.98 in1015.2 mb - 0.00 in0.0 mm 0.00 in0.0 mm
01:00 AM 54.5°F12.5°C 50.4°F10.2°C 86% 4.6 mph WNW7.4 kmh WNW 5.8 mph9.3 kmh 29.98 in1015.2 mb - 0.00 in0.0 mm 0.00 in0.0 mm
01:05 AM 54.4°F12.4°C 50.3°F10.2°C 86% 2.3 mph W3.7 kmh W 3.5 mph5.6 kmh 29.98 in1015.2 mb - 0.00 in0.0 mm 0.00 in0.0 mm
01:10 AM 54.1°F12.3°C 49.7°F9.8°C 85% 2.3 mph WNW3.7 kmh WNW 8.1 mph13.0 kmh 29.98 in1015.2 mb - 0.00 in0.0 mm 0.00 in0.0 mm
01:15 AM 53.9°F12.2°C 49.8°F9.9°C 86% 2.3 mph WSW3.7 kmh WSW 4.6 mph7.4 kmh 29.99 in1015.6 mb - 0.00 in0.0 mm 0.00 in0.0 mm
01:20 AM 53.8°F12.1°C 49.7°F9.8°C 86% 3.5 mph W5.6 kmh W 9.2 mph14.8 kmh 29.98 in1015.2 mb - 0.00 in0.0 mm 0.00 in0.0 mm
01:25 AM 53.8°F12.1°C 49.7°F9.8°C 86% 4.6 mph W7.4 kmh W 8.1 mph13.0 kmh 29.98 in1015.2 mb - 0.00 in0.0 mm 0.00 in0.0 mm
01:30 AM 53.8°F12.1°C 49.7°F9.8°C 86% 5.8 mph W9.3 kmh W 9.2 mph14.8 kmh 29.99 in1015.6 mb - 0.00 in0.0 mm 0.00 in0.0 mm
01:35 AM 53.9°F12.2°C 49.8°F9.9°C 86% 2.3 mph W3.7 kmh W 8.1 mph13.0 kmh 29.99 in1015.6 mb - 0.00 in0.0 mm 0.00 in0.0 mm
01:40 AM 53.9°F12.2°C 49.8°F9.9°C 86% 5.8 mph W9.3 kmh W 5.8 mph9.3 kmh 29.99 in1015.6 mb - 0.00 in0.0 mm 0.00 in0.0 mm
01:45 AM 54.0°F12.2°C 49.9°F9.9°C 86% 5.8 mph W9.3 kmh W 8.1 mph13.0 kmh 29.99 in1015.6 mb - 0.00 in0.0 mm 0.00 in0.0 mm
01:50 AM 54.0°F12.2°C 49.6°F9.8°C 85% 3.5 mph WSW5.6 kmh WSW 3.5 mph5.6 kmh 29.99 in1015.6 mb - 0.00 in0.0 mm 0.00 in0.0 mm
01:55 AM 54.0°F12.2°C 49.9°F9.9°C 86% 2.3 mph W3.7 kmh W 3.5 mph5.6 kmh 29.99 in1015.6 mb - 0.00 in0.0 mm 0.00 in0.0 mm
02:00 AM 53.8°F12.1°C 49.7°F9.8°C 86% 2.3 mph W3.7 kmh W 5.8 mph9.3 kmh 29.99 in1015.6 mb - 0.00 in0.0 mm 0.00 in0.0 mm
02:05 AM 53.7°F12.1°C 49.6°F9.8°C 86% 2.3 mph W3.7 kmh W 3.5 mph5.6 kmh 29.99 in1015.6 mb - 0.00 in0.0 mm 0.00 in0.0 mm
02:10 AM 53.6°F12.0°C 49.5°F9.7°C 86% 2.3 mph WSW3.7 kmh WSW 3.5 mph5.6 kmh 30.00 in1015.9 mb - 0.00 in0.0 mm 0.00 in0.0 mm
02:15 AM 53.5°F11.9°C 49.4°F9.7°C 86% 1.2 mph WSW1.9 kmh WSW 2.3 mph3.7 kmh 30.00 in1015.9 mb - 0.00 in0.0 mm 0.00 in0.0 mm
02:20 AM 53.4°F11.9°C 49.6°F9.8°C 87% Calm Calm 2.3 mph3.7 kmh 30.00 in1015.9 mb - 0.00 in0.0 mm 0.00 in0.0 mm
02:25 AM 53.3°F11.8°C 49.5°F9.7°C 87% 1.2 mph W1.9 kmh W 3.5 mph5.6 kmh 30.00 in1015.9 mb - 0.00 in0.0 mm 0.00 in0.0 mm
02:30 AM 53.3°F11.8°C 49.5°F9.7°C 87% 1.2 mph WNW1.9 kmh WNW 2.3 mph3.7 kmh 30.00 in1015.9 mb - 0.00 in0.0 mm 0.00 in0.0 mm
02:35 AM 53.3°F11.8°C 49.8°F9.9°C 88% 1.2 mph WNW1.9 kmh WNW 2.3 mph3.7 kmh 30.00 in1015.9 mb - 0.00 in0.0 mm 0.00 in0.0 mm
02:40 AM 53.3°F11.8°C 49.8°F9.9°C 88% 1.2 mph WNW1.9 kmh WNW 2.3 mph3.7 kmh 30.00 in1015.9 mb - 0.00 in0.0 mm 0.00 in0.0 mm
02:45 AM 53.3°F11.8°C 49.8°F9.9°C 88% 1.2 mph WNW1.9 kmh WNW 3.5 mph5.6 kmh 30.00 in1015.9 mb - 0.00 in0.0 mm 0.00 in0.0 mm
02:50 AM 53.1°F11.7°C 49.6°F9.8°C 88% Calm Calm 2.3 mph3.7 kmh 30.00 in1015.9 mb - 0.00 in0.0 mm 0.00 in0.0 mm
02:55 AM 53.0°F11.7°C 49.5°F9.7°C 88% 1.2 mph WSW1.9 kmh WSW 3.5 mph5.6 kmh 30.00 in1015.9 mb - 0.00 in0.0 mm 0.00 in0.0 mm
03:00 AM 52.8°F11.6°C 49.3°F9.6°C 88% 1.2 mph WSW1.9 kmh WSW 2.3 mph3.7 kmh 30.01 in1016.3 mb - 0.00 in0.0 mm 0.00 in0.0 mm
03:05 AM 52.7°F11.5°C 49.2°F9.6°C 88% 1.2 mph WSW1.9 kmh WSW 3.5 mph5.6 kmh 30.00 in1015.9 mb - 0.00 in0.0 mm 0.00 in0.0 mm
03:10 AM 52.6°F11.4°C 49.4°F9.7°C 89% Calm Calm 3.5 mph5.6 kmh 30.00 in1015.9 mb - 0.00 in0.0 mm 0.00 in0.0 mm
03:15 AM 52.7°F11.5°C 49.5°F9.7°C 89% Calm Calm -- 30.00 in1015.9 mb - 0.00 in0.0 mm 0.00 in0.0 mm
03:20 AM 52.7°F11.5°C 49.5°F9.7°C 89% Calm Calm -- 30.01 in1016.3 mb - 0.00 in0.0 mm 0.00 in0.0 mm
03:25 AM 52.7°F11.5°C 49.5°F9.7°C 89% Calm Calm -- 30.00 in1015.9 mb - 0.00 in0.0 mm 0.00 in0.0 mm
03:30 AM 52.8°F11.6°C 49.6°F9.8°C 89% Calm Calm -- 30.01 in1016.3 mb - 0.00 in0.0 mm 0.00 in0.0 mm
03:35 AM 52.9°F11.6°C 50.0°F10.0°C 90% Calm Calm -- 30.01 in1016.3 mb - 0.00 in0.0 mm 0.00 in0.0 mm
03:40 AM 53.0°F11.7°C 49.8°F9.9°C 89% Calm Calm -- 30.01 in1016.3 mb - 0.00 in0.0 mm 0.00 in0.0 mm
03:45 AM 53.0°F11.7°C 49.8°F9.9°C 89% Calm Calm -- 30.01 in1016.3 mb - 0.00 in0.0 mm 0.00 in0.0 mm
03:50 AM 53.1°F11.7°C 49.9°F9.9°C 89% Calm Calm -- 30.01 in1016.3 mb - 0.00 in0.0 mm 0.00 in0.0 mm
03:55 AM 53.0°F11.7°C 49.8°F9.9°C 89% Calm Calm -- 30.01 in1016.3 mb - 0.00 in0.0 mm 0.00 in0.0 mm
04:00 AM 53.0°F11.7°C 49.8°F9.9°C 89% Calm Calm -- 30.01 in1016.3 mb - 0.00 in0.0 mm 0.00 in0.0 mm
04:05 AM 53.0°F11.7°C 49.8°F9.9°C 89% Calm Calm -- 30.02 in1016.6 mb - 0.00 in0.0 mm 0.00 in0.0 mm
04:10 AM 53.0°F11.7°C 49.9°F9.9°C 89% Calm Calm -- 30.02 in1016.6 mb - 0.00 in0.0 mm 0.00 in0.0 mm
04:15 AM 53.1°F11.7°C 50.0°F10.0°C 89% 2.3 mph W3.7 kmh W 3.5 mph5.6 kmh 30.02 in1016.6 mb - 0.00 in0.0 mm 0.00 in0.0 mm
04:20 AM 53.2°F11.8°C 50.0°F10.0°C 89% 2.3 mph W3.7 kmh W 3.5 mph5.6 kmh 30.02 in1016.6 mb - 0.00 in0.0 mm 0.00 in0.0 mm
04:25 AM 53.2°F11.8°C 50.0°F10.0°C 89% 3.5 mph W5.6 kmh W 5.8 mph9.3 kmh 30.02 in1016.6 mb - 0.00 in0.0 mm 0.00 in0.0 mm
04:30 AM 53.2°F11.8°C 50.0°F10.0°C 89% 2.3 mph W3.7 kmh W 3.5 mph5.6 kmh 30.02 in1016.6 mb - 0.00 in0.0 mm 0.00 in0.0 mm
04:35 AM 53.3°F11.8°C 50.1°F10.1°C 89% 2.3 mph W3.7 kmh W 3.5 mph5.6 kmh 30.02 in1016.6 mb - 0.00 in0.0 mm 0.00 in0.0 mm
04:40 AM 53.3°F11.8°C 50.1°F10.1°C 89% 1.2 mph W1.9 kmh W 1.2 mph1.9 kmh 30.02 in1016.6 mb - 0.00 in0.0 mm 0.00 in0.0 mm
04:45 AM 53.2°F11.8°C 49.8°F9.9°C 88% Calm Calm -- 30.02 in1016.6 mb - 0.00 in0.0 mm 0.00 in0.0 mm
04:50 AM 53.2°F11.8°C 50.1°F10.1°C 89% Calm Calm -- 30.02 in1016.6 mb - 0.00 in0.0 mm 0.00 in0.0 mm
04:55 AM 53.3°F11.8°C 49.8°F9.9°C 88% Calm Calm -- 30.02 in1016.6 mb - 0.00 in0.0 mm 0.00 in0.0 mm
05:00 AM 53.3°F11.8°C 50.2°F10.1°C 89% Calm Calm -- 30.02 in1016.6 mb - 0.00 in0.0 mm 0.00 in0.0 mm
05:05 AM 53.4°F11.9°C 49.9°F9.9°C 88% Calm Calm -- 30.02 in1016.6 mb - 0.00 in0.0 mm 0.00 in0.0 mm
05:10 AM 53.5°F11.9°C 50.0°F10.0°C 88% Calm Calm -- 30.03 in1016.9 mb - 0.00 in0.0 mm 0.00 in0.0 mm
05:15 AM 53.6°F12.0°C 50.1°F10.1°C 88% Calm Calm -- 30.03 in1016.9 mb - 0.00 in0.0 mm 0.00 in0.0 mm
05:20 AM 53.7°F12.1°C 50.5°F10.3°C 89% Calm Calm -- 30.03 in1016.9 mb - 0.00 in0.0 mm 0.00 in0.0 mm
05:25 AM 53.9°F12.2°C 50.7°F10.4°C 89% Calm Calm -- 30.03 in1016.9 mb - 0.00 in0.0 mm 0.00 in0.0 mm
05:30 AM 54.1°F12.3°C 50.9°F10.5°C 89% Calm Calm -- 30.03 in1016.9 mb - 0.00 in0.0 mm 0.00 in0.0 mm
05:35 AM 54.2°F12.3°C 51.0°F10.6°C 89% Calm Calm 2.3 mph3.7 kmh 30.02 in1016.6 mb - 0.00 in0.0 mm 0.00 in0.0 mm
05:40 AM 54.3°F12.4°C 51.1°F10.6°C 89% Calm Calm -- 30.02 in1016.6 mb - 0.00 in0.0 mm 0.00 in0.0 mm
05:45 AM 54.5°F12.5°C 51.3°F10.7°C 89% 2.3 mph WSW3.7 kmh WSW 3.5 mph5.6 kmh 30.03 in1016.9 mb - 0.00 in0.0 mm 0.00 in0.0 mm
05:50 AM 54.6°F12.6°C 51.1°F10.6°C 88% 3.5 mph W5.6 kmh W 6.9 mph11.1 kmh 30.03 in1016.9 mb - 0.00 in0.0 mm 0.00 in0.0 mm
05:55 AM 54.8°F12.7°C 51.0°F10.6°C 87% 3.5 mph WSW5.6 kmh WSW 6.9 mph11.1 kmh 30.03 in1016.9 mb - 0.00 in0.0 mm 0.00 in0.0 mm
06:00 AM 54.8°F12.7°C 51.1°F10.6°C 87% 4.6 mph WSW7.4 kmh WSW 6.9 mph11.1 kmh 30.03 in1016.9 mb - 0.00 in0.0 mm 0.00 in0.0 mm
06:05 AM 55.0°F12.8°C 50.6°F10.3°C 85% 4.6 mph WSW7.4 kmh WSW 8.1 mph13.0 kmh 30.04 in1017.3 mb - 0.00 in0.0 mm 0.00 in0.0 mm
06:10 AM 55.2°F12.9°C 50.4°F10.2°C 84% 4.6 mph WSW7.4 kmh WSW 9.2 mph14.8 kmh 30.03 in1016.9 mb - 0.00 in0.0 mm 0.00 in0.0 mm
06:15 AM 55.4°F13.0°C 50.6°F10.3°C 84% 2.3 mph W3.7 kmh W 3.5 mph5.6 kmh 30.03 in1016.9 mb - 0.00 in0.0 mm 0.00 in0.0 mm
06:20 AM 55.4°F13.0°C 50.6°F10.3°C 84% 2.3 mph WSW3.7 kmh WSW 3.5 mph5.6 kmh 30.03 in1016.9 mb - 0.00 in0.0 mm 0.00 in0.0 mm
06:25 AM 55.6°F13.1°C 51.1°F10.6°C 85% 2.3 mph W3.7 kmh W 3.5 mph5.6 kmh 30.03 in1016.9 mb - 0.00 in0.0 mm 0.00 in0.0 mm
06:30 AM 55.8°F13.2°C 51.0°F10.6°C 84% 4.6 mph W7.4 kmh W 8.1 mph13.0 kmh 30.04 in1017.3 mb - 0.00 in0.0 mm 0.00 in0.0 mm
06:35 AM 56.1°F13.4°C 51.0°F10.6°C 83% 3.5 mph W5.6 kmh W 9.2 mph14.8 kmh 30.04 in1017.3 mb - 0.00 in0.0 mm 0.00 in0.0 mm
06:40 AM 56.4°F13.6°C 51.3°F10.7°C 83% 2.3 mph WSW3.7 kmh WSW 3.5 mph5.6 kmh 30.04 in1017.3 mb - 0.00 in0.0 mm 0.00 in0.0 mm
06:45 AM 56.6°F13.7°C 51.2°F10.7°C 82% 4.6 mph W7.4 kmh W 5.8 mph9.3 kmh 30.04 in1017.3 mb - 0.00 in0.0 mm 0.00 in0.0 mm
06:50 AM 57.0°F13.9°C 51.2°F10.7°C 81% 4.6 mph WNW7.4 kmh WNW 8.1 mph13.0 kmh 30.05 in1017.6 mb - 0.00 in0.0 mm 0.00 in0.0 mm
06:55 AM 57.1°F13.9°C 50.6°F10.3°C 79% 4.6 mph WSW7.4 kmh WSW 6.9 mph11.1 kmh 30.05 in1017.6 mb - 0.00 in0.0 mm 0.00 in0.0 mm
07:00 AM 57.1°F13.9°C 49.6°F9.8°C 76% 4.6 mph W7.4 kmh W 11.5 mph18.5 kmh 30.05 in1017.6 mb - 0.00 in0.0 mm 0.00 in0.0 mm
07:05 AM 57.0°F13.9°C 49.5°F9.7°C 76% 6.9 mph WSW11.1 kmh WSW 11.5 mph18.5 kmh 30.05 in1017.6 mb - 0.00 in0.0 mm 0.00 in0.0 mm
07:10 AM 56.9°F13.8°C 49.1°F9.5°C 75% 6.9 mph W11.1 kmh W 11.5 mph18.5 kmh 30.05 in1017.6 mb - 0.00 in0.0 mm 0.00 in0.0 mm
07:15 AM 56.9°F13.8°C 49.1°F9.5°C 75% 8.1 mph WSW13.0 kmh WSW 12.7 mph20.4 kmh 30.05 in1017.6 mb - 0.00 in0.0 mm 0.00 in0.0 mm
07:20 AM 57.0°F13.9°C 49.2°F9.6°C 75% 9.2 mph WSW14.8 kmh WSW 12.7 mph20.4 kmh 30.05 in1017.6 mb - 0.00 in0.0 mm 0.00 in0.0 mm
07:25 AM 57.1°F13.9°C 49.6°F9.8°C 76% 6.9 mph WSW11.1 kmh WSW 10.4 mph16.7 kmh 30.05 in1017.6 mb - 0.00 in0.0 mm 0.00 in0.0 mm
07:30 AM 57.1°F13.9°C 49.6°F9.8°C 76% 6.9 mph WSW11.1 kmh WSW 13.8 mph22.2 kmh 30.05 in1017.6 mb - 0.00 in0.0 mm 0.00 in0.0 mm
07:35 AM 56.9°F13.8°C 49.4°F9.7°C 76% 10.4 mph WSW16.7 kmh WSW 15.0 mph24.1 kmh 30.05 in1017.6 mb - 0.00 in0.0 mm 0.00 in0.0 mm
07:40 AM 56.8°F13.8°C 49.3°F9.6°C 76% 8.1 mph WSW13.0 kmh WSW 16.1 mph25.9 kmh 30.05 in1017.6 mb - 0.00 in0.0 mm 0.00 in0.0 mm
07:45 AM 56.8°F13.8°C 49.3°F9.6°C 76% 8.1 mph WSW13.0 kmh WSW 13.8 mph22.2 kmh 30.06 in1017.9 mb - 0.00 in0.0 mm 0.00 in0.0 mm
07:50 AM 56.8°F13.8°C 49.7°F9.8°C 77% 5.8 mph W9.3 kmh W 11.5 mph18.5 kmh 30.06 in1017.9 mb - 0.00 in0.0 mm 0.00 in0.0 mm
07:55 AM 56.8°F13.8°C 50.7°F10.4°C 80% 4.6 mph W7.4 kmh W 9.2 mph14.8 kmh 30.06 in1017.9 mb - 0.00 in0.0 mm 0.00 in0.0 mm
08:00 AM 56.6°F13.7°C 51.1°F10.6°C 82% 5.8 mph W9.3 kmh W 10.4 mph16.7 kmh 30.06 in1017.9 mb - 0.00 in0.0 mm 0.00 in0.0 mm
08:05 AM 56.5°F13.6°C 51.4°F10.8°C 83% 8.1 mph W13.0 kmh W 11.5 mph18.5 kmh 30.06 in1017.9 mb - 0.00 in0.0 mm 0.00 in0.0 mm
08:10 AM 57.4°F14.1°C 52.3°F11.3°C 83% 6.9 mph W11.1 kmh W 11.5 mph18.5 kmh 30.06 in1017.9 mb - 0.00 in0.0 mm 0.00 in0.0 mm
08:15 AM 58.5°F14.7°C 52.7°F11.5°C 81% 5.8 mph NW9.3 kmh NW 10.4 mph16.7 kmh 30.06 in1017.9 mb - 0.00 in0.0 mm 0.00 in0.0 mm
08:20 AM 59.6°F15.3°C 52.3°F11.3°C 77% 6.9 mph WNW11.1 kmh WNW 11.5 mph18.5 kmh 30.07 in1018.3 mb - 0.00 in0.0 mm 0.00 in0.0 mm
08:25 AM 60.2°F15.7°C 52.3°F11.3°C 75% 5.8 mph W9.3 kmh W 10.4 mph16.7 kmh 30.07 in1018.3 mb - 0.00 in0.0 mm 0.00 in0.0 mm
08:30 AM 60.9°F16.1°C 52.1°F11.2°C 73% 6.9 mph WSW11.1 kmh WSW 11.5 mph18.5 kmh 30.06 in1017.9 mb - 0.00 in0.0 mm 0.00 in0.0 mm
08:35 AM 60.9°F16.1°C 51.8°F11.0°C 72% 9.2 mph W14.8 kmh W 11.5 mph18.5 kmh 30.06 in1017.9 mb - 0.00 in0.0 mm 0.00 in0.0 mm
08:40 AM 60.7°F15.9°C 52.0°F11.1°C 73% 8.1 mph W13.0 kmh W 11.5 mph18.5 kmh 30.06 in1017.9 mb - 0.00 in0.0 mm 0.00 in0.0 mm
08:45 AM 60.3°F15.7°C 50.8°F10.4°C 71% 9.2 mph WSW14.8 kmh WSW 12.7 mph20.4 kmh 30.06 in1017.9 mb - 0.00 in0.0 mm 0.00 in0.0 mm
08:50 AM 60.6°F15.9°C 51.2°F10.7°C 71% 9.2 mph WSW14.8 kmh WSW 11.5 mph18.5 kmh 30.07 in1018.3 mb - 0.00 in0.0 mm 0.00 in0.0 mm
08:55 AM 60.8°F16.0°C 50.2°F10.1°C 68% 13.8 mph WSW22.2 kmh WSW 19.6 mph31.5 kmh 30.07 in1018.3 mb - 0.00 in0.0 mm 0.00 in0.0 mm
09:00 AM 61.2°F16.2°C 50.5°F10.3°C 68% 9.2 mph WSW14.8 kmh WSW 19.6 mph31.5 kmh 30.07 in1018.3 mb - 0.00 in0.0 mm 0.00 in0.0 mm
09:05 AM 61.8°F16.6°C 50.7°F10.4°C 67% 9.2 mph WSW14.8 kmh WSW 13.8 mph22.2 kmh 30.07 in1018.3 mb - 0.00 in0.0 mm 0.00 in0.0 mm
09:10 AM 62.2°F16.8°C 50.3°F10.2°C 65% 9.2 mph WSW14.8 kmh WSW 15.0 mph24.1 kmh 30.07 in1018.3 mb - 0.00 in0.0 mm 0.00 in0.0 mm
09:15 AM 61.6°F16.4°C 49.7°F9.8°C 65% 8.1 mph WNW13.0 kmh WNW 18.4 mph29.6 kmh 30.07 in1018.3 mb - 0.00 in0.0 mm 0.00 in0.0 mm
09:20 AM 61.2°F16.2°C 49.0°F9.4°C 64% 12.7 mph WSW20.4 kmh WSW 16.1 mph25.9 kmh 30.07 in1018.3 mb - 0.00 in0.0 mm 0.00 in0.0 mm
09:25 AM 60.5°F15.8°C 48.6°F9.2°C 65% 12.7 mph WSW20.4 kmh WSW 19.6 mph31.5 kmh 30.07 in1018.3 mb - 0.00 in0.0 mm 0.00 in0.0 mm
09:30 AM 60.2°F15.7°C 49.6°F9.8°C 68% 10.4 mph WSW16.7 kmh WSW 17.3 mph27.8 kmh 30.07 in1018.3 mb - 0.00 in0.0 mm 0.00 in0.0 mm
09:35 AM 61.1°F16.2°C 50.5°F10.3°C 68% 10.4 mph WSW16.7 kmh WSW 16.1 mph25.9 kmh 30.07 in1018.3 mb - 0.00 in0.0 mm 0.00 in0.0 mm
09:40 AM 62.1°F16.7°C 50.1°F10.1°C 65% 12.7 mph WSW20.4 kmh WSW 18.4 mph29.6 kmh 30.07 in1018.3 mb - 0.00 in0.0 mm 0.00 in0.0 mm
09:45 AM 62.5°F16.9°C 49.3°F9.6°C 62% 13.8 mph WSW22.2 kmh WSW 19.6 mph31.5 kmh 30.07 in1018.3 mb - 0.00 in0.0 mm 0.00 in0.0 mm
09:50 AM 62.7°F17.1°C 49.1°F9.5°C 61% 13.8 mph WSW22.2 kmh WSW 20.7 mph33.3 kmh 30.07 in1018.3 mb - 0.00 in0.0 mm 0.00 in0.0 mm
09:55 AM 63.2°F17.3°C 49.9°F9.9°C 62% 10.4 mph WSW16.7 kmh WSW 12.7 mph20.4 kmh 30.07 in1018.3 mb - 0.00 in0.0 mm 0.00 in0.0 mm
10:00 AM 62.8°F17.1°C 49.6°F9.8°C 62% 10.4 mph WSW16.7 kmh WSW 17.3 mph27.8 kmh 30.07 in1018.3 mb - 0.00 in0.0 mm 0.00 in0.0 mm
10:05 AM 63.4°F17.4°C 51.0°F10.6°C 64% 6.9 mph W11.1 kmh W 13.8 mph22.2 kmh 30.08 in1018.6 mb - 0.00 in0.0 mm 0.00 in0.0 mm
10:10 AM 64.5°F18.1°C 52.0°F11.1°C 64% 11.5 mph WSW18.5 kmh WSW 13.8 mph22.2 kmh 30.08 in1018.6 mb - 0.00 in0.0 mm 0.00 in0.0 mm
10:15 AM 64.5°F18.1°C 50.7°F10.4°C 61% 11.5 mph WSW18.5 kmh WSW 16.1 mph25.9 kmh 30.08 in1018.6 mb - 0.00 in0.0 mm 0.00 in0.0 mm
10:20 AM 64.8°F18.2°C 51.9°F11.1°C 63% 8.1 mph WSW13.0 kmh WSW 11.5 mph18.5 kmh 30.08 in1018.6 mb - 0.00 in0.0 mm 0.00 in0.0 mm
10:25 AM 65.0°F18.3°C 50.8°F10.4°C 60% 11.5 mph WSW18.5 kmh WSW 19.6 mph31.5 kmh 30.08 in1018.6 mb - 0.00 in0.0 mm 0.00 in0.0 mm
10:30 AM 64.7°F18.2°C 49.6°F9.8°C 58% 9.2 mph WSW14.8 kmh WSW 15.0 mph24.1 kmh 30.08 in1018.6 mb - 0.00 in0.0 mm 0.00 in0.0 mm
10:35 AM 64.6°F18.1°C 48.5°F9.2°C 56% 12.7 mph WSW20.4 kmh WSW 16.1 mph25.9 kmh 30.08 in1018.6 mb - 0.00 in0.0 mm 0.00 in0.0 mm
10:40 AM 64.5°F18.1°C 48.0°F8.9°C 55% 12.7 mph WSW20.4 kmh WSW 18.4 mph29.6 kmh 30.08 in1018.6 mb - 0.00 in0.0 mm 0.00 in0.0 mm
10:45 AM 64.1°F17.8°C 48.1°F8.9°C 56% 11.5 mph WSW18.5 kmh WSW 19.6 mph31.5 kmh 30.09 in1019.0 mb - 0.00 in0.0 mm 0.00 in0.0 mm
10:50 AM 63.7°F17.6°C 48.2°F9.0°C 57% 9.2 mph W14.8 kmh W 13.8 mph22.2 kmh 30.09 in1019.0 mb - 0.00 in0.0 mm 0.00 in0.0 mm
10:55 AM 64.1°F17.8°C 48.1°F8.9°C 56% 9.2 mph WSW14.8 kmh WSW 15.0 mph24.1 kmh 30.09 in1019.0 mb - 0.00 in0.0 mm 0.00 in0.0 mm
11:00 AM 64.4°F18.0°C 47.8°F8.8°C 55% 12.7 mph WSW20.4 kmh WSW 24.2 mph38.9 kmh 30.09 in1019.0 mb - 0.00 in0.0 mm 0.00 in0.0 mm
11:05 AM 64.5°F18.1°C 47.5°F8.6°C 54% 11.5 mph WSW18.5 kmh WSW 18.4 mph29.6 kmh 30.09 in1019.0 mb - 0.00 in0.0 mm 0.00 in0.0 mm
11:10 AM 64.4°F18.0°C 47.4°F8.6°C 54% 8.1 mph W13.0 kmh W 12.7 mph20.4 kmh 30.09 in1019.0 mb - 0.00 in0.0 mm 0.00 in0.0 mm
11:15 AM 64.7°F18.2°C 49.2°F9.6°C 57% 9.2 mph W14.8 kmh W 11.5 mph18.5 kmh 30.09 in1019.0 mb - 0.00 in0.0 mm 0.00 in0.0 mm
11:20 AM 64.8°F18.2°C 49.2°F9.6°C 57% 9.2 mph W14.8 kmh W 12.7 mph20.4 kmh 30.09 in1019.0 mb - 0.00 in0.0 mm 0.00 in0.0 mm
11:25 AM 64.5°F18.1°C 48.5°F9.2°C 56% 9.2 mph WSW14.8 kmh WSW 13.8 mph22.2 kmh 30.09 in1019.0 mb - 0.00 in0.0 mm 0.00 in0.0 mm
11:30 AM 64.9°F18.3°C 48.8°F9.3°C 56% 11.5 mph WSW18.5 kmh WSW 19.6 mph31.5 kmh 30.09 in1019.0 mb - 0.00 in0.0 mm 0.00 in0.0 mm
11:35 AM 64.8°F18.2°C 48.7°F9.3°C 56% 11.5 mph WSW18.5 kmh WSW 15.0 mph24.1 kmh 30.09 in1019.0 mb - 0.00 in0.0 mm 0.00 in0.0 mm
11:40 AM 64.0°F17.8°C 48.0°F8.9°C 56% 10.4 mph WSW16.7 kmh WSW 18.4 mph29.6 kmh 30.10 in1019.3 mb - 0.00 in0.0 mm 0.00 in0.0 mm
11:45 AM 63.2°F17.3°C 48.6°F9.2°C 59% 10.4 mph W16.7 kmh W 15.0 mph24.1 kmh 30.10 in1019.3 mb - 0.00 in0.0 mm 0.00 in0.0 mm
11:50 AM 62.5°F16.9°C 49.3°F9.6°C 62% 11.5 mph W18.5 kmh W 16.1 mph25.9 kmh 30.10 in1019.3 mb - 0.00 in0.0 mm 0.00 in0.0 mm
11:55 AM 62.4°F16.9°C 49.6°F9.8°C 63% 11.5 mph W18.5 kmh W 18.4 mph29.6 kmh 30.10 in1019.3 mb - 0.00 in0.0 mm 0.00 in0.0 mm
12:00 PM 62.7°F17.1°C 49.5°F9.7°C 62% 8.1 mph W13.0 kmh W 11.5 mph18.5 kmh 30.11 in1019.6 mb - 0.00 in0.0 mm 0.00 in0.0 mm
12:05 PM 63.6°F17.6°C 50.4°F10.2°C 62% 13.8 mph W22.2 kmh W 20.7 mph33.3 kmh 30.10 in1019.3 mb - 0.00 in0.0 mm 0.00 in0.0 mm
12:10 PM 64.2°F17.9°C 50.0°F10.0°C 60% 8.1 mph W13.0 kmh W 11.5 mph18.5 kmh 30.10 in1019.3 mb - 0.00 in0.0 mm 0.00 in0.0 mm
12:15 PM 64.5°F18.1°C 50.3°F10.2°C 60% 12.7 mph WSW20.4 kmh WSW 17.3 mph27.8 kmh 30.10 in1019.3 mb - 0.00 in0.0 mm 0.00 in0.0 mm
12:20 PM 64.6°F18.1°C 49.9°F9.9°C 59% 9.2 mph W14.8 kmh W 16.1 mph25.9 kmh 30.10 in1019.3 mb - 0.00 in0.0 mm 0.00 in0.0 mm
12:25 PM 64.6°F18.1°C 49.9°F9.9°C 59% 10.4 mph WSW16.7 kmh WSW 17.3 mph27.8 kmh 30.10 in1019.3 mb - 0.00 in0.0 mm 0.00 in0.0 mm
12:30 PM 65.1°F18.4°C 50.8°F10.4°C 60% 12.7 mph WSW20.4 kmh WSW 19.6 mph31.5 kmh 30.10 in1019.3 mb - 0.00 in0.0 mm 0.00 in0.0 mm
12:35 PM 65.6°F18.7°C 50.4°F10.2°C 58% 5.8 mph WSW9.3 kmh WSW 10.4 mph16.7 kmh 30.11 in1019.6 mb - 0.00 in0.0 mm 0.00 in0.0 mm
12:40 PM 65.5°F18.6°C 49.4°F9.7°C 56% 10.4 mph WSW16.7 kmh WSW 18.4 mph29.6 kmh 30.11 in1019.6 mb - 0.00 in0.0 mm 0.00 in0.0 mm
12:45 PM 64.6°F18.1°C 49.4°F9.7°C 58% 9.2 mph WSW14.8 kmh WSW 15.0 mph24.1 kmh 30.11 in1019.6 mb - 0.00 in0.0 mm 0.00 in0.0 mm
12:50 PM 64.1°F17.8°C 49.0°F9.4°C 58% 6.9 mph WSW11.1 kmh WSW 11.5 mph18.5 kmh 30.11 in1019.6 mb - 0.00 in0.0 mm 0.00 in0.0 mm
12:55 PM 63.9°F17.7°C 48.4°F9.1°C 57% 6.9 mph WSW11.1 kmh WSW 12.7 mph20.4 kmh 30.11 in1019.6 mb - 0.00 in0.0 mm 0.00 in0.0 mm
01:00 PM 63.8°F17.7°C 48.7°F9.3°C 58% 9.2 mph W14.8 kmh W 11.5 mph18.5 kmh 30.11 in1019.6 mb - 0.00 in0.0 mm 0.00 in0.0 mm
01:05 PM 64.7°F18.2°C 50.0°F10.0°C 59% 9.2 mph WSW14.8 kmh WSW 15.0 mph24.1 kmh 30.11 in1019.6 mb - 0.00 in0.0 mm 0.00 in0.0 mm
01:10 PM 65.7°F18.7°C 49.6°F9.8°C 56% 9.2 mph W14.8 kmh W 15.0 mph24.1 kmh 30.11 in1019.6 mb - 0.00 in0.0 mm 0.00 in0.0 mm
01:15 PM 65.5°F18.6°C 47.9°F8.8°C 53% 12.7 mph WSW20.4 kmh WSW 19.6 mph31.5 kmh 30.11 in1019.6 mb - 0.00 in0.0 mm 0.00 in0.0 mm
01:20 PM 65.0°F18.3°C 48.9°F9.4°C 56% 13.8 mph WSW22.2 kmh WSW 20.7 mph33.3 kmh 30.11 in1019.6 mb - 0.00 in0.0 mm 0.00 in0.0 mm
01:25 PM 65.0°F18.3°C 47.5°F8.6°C 53% 9.2 mph WSW14.8 kmh WSW 11.5 mph18.5 kmh 30.11 in1019.6 mb - 0.00 in0.0 mm 0.00 in0.0 mm
01:30 PM 64.8°F18.2°C 46.7°F8.2°C 52% 11.5 mph WSW18.5 kmh WSW 19.6 mph31.5 kmh 30.11 in1019.6 mb - 0.00 in0.0 mm 0.00 in0.0 mm
01:35 PM 64.1°F17.8°C 47.6°F8.7°C 55% 8.1 mph W13.0 kmh W 15.0 mph24.1 kmh 30.11 in1019.6 mb - 0.00 in0.0 mm 0.00 in0.0 mm
01:40 PM 64.0°F17.8°C 47.5°F8.6°C 55% 8.1 mph WSW13.0 kmh WSW 17.3 mph27.8 kmh 30.11 in1019.6 mb - 0.00 in0.0 mm 0.00 in0.0 mm
01:45 PM 64.1°F17.8°C 47.6°F8.7°C 55% 11.5 mph WSW18.5 kmh WSW 12.7 mph20.4 kmh 30.11 in1019.6 mb - 0.00 in0.0 mm 0.00 in0.0 mm
01:50 PM 64.3°F17.9°C 48.3°F9.1°C 56% 11.5 mph WSW18.5 kmh WSW 26.5 mph42.6 kmh 30.12 in1020.0 mb - 0.00 in0.0 mm 0.00 in0.0 mm
01:55 PM 64.1°F17.8°C 47.6°F8.7°C 55% 11.5 mph WSW18.5 kmh WSW 19.6 mph31.5 kmh 30.12 in1020.0 mb - 0.00 in0.0 mm 0.00 in0.0 mm
02:00 PM 64.2°F17.9°C 48.6°F9.2°C 57% 12.7 mph WSW20.4 kmh WSW 19.6 mph31.5 kmh 30.12 in1020.0 mb - 0.00 in0.0 mm 0.00 in0.0 mm
02:05 PM 63.3°F17.4°C 47.4°F8.6°C 56% 11.5 mph WSW18.5 kmh WSW 19.6 mph31.5 kmh 30.12 in1020.0 mb - 0.00 in0.0 mm 0.00 in0.0 mm
02:10 PM 62.7°F17.1°C 48.2°F9.0°C 59% 12.7 mph SW20.4 kmh SW 16.1 mph25.9 kmh 30.12 in1020.0 mb - 0.00 in0.0 mm 0.00 in0.0 mm
02:15 PM 62.3°F16.8°C 48.6°F9.2°C 61% 12.7 mph WSW20.4 kmh WSW 19.6 mph31.5 kmh 30.12 in1020.0 mb - 0.00 in0.0 mm 0.00 in0.0 mm
02:20 PM 62.4°F16.9°C 49.6°F9.8°C 63% 12.7 mph WSW20.4 kmh WSW 19.6 mph31.5 kmh 30.13 in1020.3 mb - 0.00 in0.0 mm 0.00 in0.0 mm
02:25 PM 62.5°F16.9°C 50.6°F10.3°C 65% 10.4 mph W16.7 kmh W 17.3 mph27.8 kmh 30.13 in1020.3 mb - 0.00 in0.0 mm 0.00 in0.0 mm
02:30 PM 62.3°F16.8°C 50.0°F10.0°C 64% 13.8 mph W22.2 kmh W 24.2 mph38.9 kmh 30.14 in1020.7 mb - 0.00 in0.0 mm 0.00 in0.0 mm
02:35 PM 61.7°F16.5°C 49.4°F9.7°C 64% 10.4 mph WSW16.7 kmh WSW 18.4 mph29.6 kmh 30.14 in1020.7 mb - 0.00 in0.0 mm 0.00 in0.0 mm
02:40 PM 61.6°F16.4°C 48.9°F9.4°C 63% 11.5 mph W18.5 kmh W 16.1 mph25.9 kmh 30.14 in1020.7 mb - 0.00 in0.0 mm 0.00 in0.0 mm
02:45 PM 62.0°F16.7°C 49.6°F9.8°C 64% 8.1 mph WSW13.0 kmh WSW 16.1 mph25.9 kmh 30.13 in1020.3 mb - 0.00 in0.0 mm 0.00 in0.0 mm
02:50 PM 62.0°F16.7°C 49.2°F9.6°C 63% 6.9 mph W11.1 kmh W 13.8 mph22.2 kmh 30.13 in1020.3 mb - 0.00 in0.0 mm 0.00 in0.0 mm
02:55 PM 61.9°F16.6°C 48.3°F9.1°C 61% 11.5 mph WSW18.5 kmh WSW 12.7 mph20.4 kmh 30.13 in1020.3 mb - 0.00 in0.0 mm 0.00 in0.0 mm
03:00 PM 61.7°F16.5°C 48.1°F8.9°C 61% 10.4 mph WSW16.7 kmh WSW 17.3 mph27.8 kmh 30.13 in1020.3 mb - 0.00 in0.0 mm 0.00 in0.0 mm
03:05 PM 61.3°F16.3°C 47.7°F8.7°C 61% 8.1 mph WSW13.0 kmh WSW 17.3 mph27.8 kmh 30.13 in1020.3 mb - 0.00 in0.0 mm 0.00 in0.0 mm
03:10 PM 61.4°F16.3°C 48.2°F9.0°C 62% 9.2 mph WSW14.8 kmh WSW 13.8 mph22.2 kmh 30.13 in1020.3 mb - 0.00 in0.0 mm 0.00 in0.0 mm
03:15 PM 61.9°F16.6°C 48.7°F9.3°C 62% 9.2 mph WSW14.8 kmh WSW 18.4 mph29.6 kmh 30.13 in1020.3 mb - 0.00 in0.0 mm 0.00 in0.0 mm
03:20 PM 62.2°F16.8°C 49.0°F9.4°C 62% 8.1 mph WSW13.0 kmh WSW 15.0 mph24.1 kmh 30.13 in1020.3 mb - 0.00 in0.0 mm 0.00 in0.0 mm
03:25 PM 62.9°F17.2°C 48.8°F9.3°C 60% 12.7 mph WSW20.4 kmh WSW 19.6 mph31.5 kmh 30.13 in1020.3 mb - 0.00 in0.0 mm 0.00 in0.0 mm
03:30 PM 62.7°F17.1°C 48.2°F9.0°C 59% 11.5 mph WSW18.5 kmh WSW 18.4 mph29.6 kmh 30.13 in1020.3 mb - 0.00 in0.0 mm 0.00 in0.0 mm
03:35 PM 62.5°F16.9°C 48.9°F9.4°C 61% 6.9 mph WSW11.1 kmh WSW 10.4 mph16.7 kmh 30.13 in1020.3 mb - 0.00 in0.0 mm 0.00 in0.0 mm
03:40 PM 62.5°F16.9°C 48.9°F9.4°C 61% 13.8 mph WSW22.2 kmh WSW 20.7 mph33.3 kmh 30.13 in1020.3 mb - 0.00 in0.0 mm 0.00 in0.0 mm
03:45 PM 62.7°F17.1°C 48.6°F9.2°C 60% 9.2 mph WSW14.8 kmh WSW 18.4 mph29.6 kmh 30.13 in1020.3 mb - 0.00 in0.0 mm 0.00 in0.0 mm
03:50 PM 62.5°F16.9°C 48.8°F9.3°C 61% 11.5 mph WSW18.5 kmh WSW 17.3 mph27.8 kmh 30.13 in1020.3 mb - 0.00 in0.0 mm 0.00 in0.0 mm
03:55 PM 62.0°F16.7°C 48.4°F9.1°C 61% 13.8 mph WSW22.2 kmh WSW 19.6 mph31.5 kmh 30.14 in1020.7 mb - 0.00 in0.0 mm 0.00 in0.0 mm
04:00 PM 61.9°F16.6°C 49.2°F9.6°C 63% 8.1 mph W13.0 kmh W 11.5 mph18.5 kmh 30.13 in1020.3 mb - 0.00 in0.0 mm 0.00 in0.0 mm
04:05 PM 62.4°F16.9°C 48.8°F9.3°C 61% 8.1 mph W13.0 kmh W 13.8 mph22.2 kmh 30.13 in1020.3 mb - 0.00 in0.0 mm 0.00 in0.0 mm
04:10 PM 62.6°F17.0°C 47.6°F8.7°C 58% 11.5 mph W18.5 kmh W 17.3 mph27.8 kmh 30.13 in1020.3 mb - 0.00 in0.0 mm 0.00 in0.0 mm
04:15 PM 62.3°F16.8°C 48.3°F9.1°C 60% 8.1 mph W13.0 kmh W 11.5 mph18.5 kmh 30.13 in1020.3 mb - 0.00 in0.0 mm 0.00 in0.0 mm
04:20 PM 62.1°F16.7°C 48.0°F8.9°C 60% 6.9 mph W11.1 kmh W 10.4 mph16.7 kmh 30.13 in1020.3 mb - 0.00 in0.0 mm 0.00 in0.0 mm
04:25 PM 61.9°F16.6°C 48.3°F9.1°C 61% 9.2 mph WSW14.8 kmh WSW 11.5 mph18.5 kmh 30.13 in1020.3 mb - 0.00 in0.0 mm 0.00 in0.0 mm
04:30 PM 61.9°F16.6°C 49.1°F9.5°C 63% 6.9 mph W11.1 kmh W 12.7 mph20.4 kmh 30.13 in1020.3 mb - 0.00 in0.0 mm 0.00 in0.0 mm
04:35 PM 61.9°F16.6°C 49.1°F9.5°C 63% 9.2 mph WSW14.8 kmh WSW 16.1 mph25.9 kmh 30.13 in1020.3 mb - 0.00 in0.0 mm 0.00 in0.0 mm
04:40 PM 61.8°F16.6°C 49.1°F9.5°C 63% 8.1 mph WSW13.0 kmh WSW 11.5 mph18.5 kmh 30.13 in1020.3 mb - 0.00 in0.0 mm 0.00 in0.0 mm
04:45 PM 61.8°F16.6°C 49.5°F9.7°C 64% 8.1 mph WSW13.0 kmh WSW 11.5 mph18.5 kmh 30.12 in1020.0 mb - 0.00 in0.0 mm 0.00 in0.0 mm
04:50 PM 62.2°F16.8°C 49.0°F9.4°C 62% 6.9 mph WSW11.1 kmh WSW 11.5 mph18.5 kmh 30.12 in1020.0 mb - 0.00 in0.0 mm 0.00 in0.0 mm
04:55 PM 62.0°F16.7°C 49.3°F9.6°C 63% 8.1 mph W13.0 kmh W 12.7 mph20.4 kmh 30.12 in1020.0 mb - 0.00 in0.0 mm 0.00 in0.0 mm
05:00 PM 61.8°F16.6°C 49.5°F9.7°C 64% 8.1 mph WSW13.0 kmh WSW 15.0 mph24.1 kmh 30.12 in1020.0 mb - 0.00 in0.0 mm 0.00 in0.0 mm
05:05 PM 61.5°F16.4°C 48.8°F9.3°C 63% 11.5 mph WSW18.5 kmh WSW 16.1 mph25.9 kmh 30.12 in1020.0 mb - 0.00 in0.0 mm 0.00 in0.0 mm
05:10 PM 61.3°F16.3°C 49.0°F9.4°C 64% 8.1 mph W13.0 kmh W 9.2 mph14.8 kmh 30.12 in1020.0 mb - 0.00 in0.0 mm 0.00 in0.0 mm
05:15 PM 61.1°F16.2°C 48.9°F9.4°C 64% 8.1 mph WSW13.0 kmh WSW 15.0 mph24.1 kmh 30.12 in1020.0 mb - 0.00 in0.0 mm 0.00 in0.0 mm
05:20 PM 60.8°F16.0°C 48.5°F9.2°C 64% 9.2 mph WSW14.8 kmh WSW 12.7 mph20.4 kmh 30.12 in1020.0 mb - 0.00 in0.0 mm 0.00 in0.0 mm
05:25 PM 60.5°F15.8°C 48.3°F9.1°C 64% 6.9 mph WSW11.1 kmh WSW 16.1 mph25.9 kmh 30.12 in1020.0 mb - 0.00 in0.0 mm 0.00 in0.0 mm
05:30 PM 60.5°F15.8°C 48.2°F9.0°C 64% 11.5 mph WSW18.5 kmh WSW 19.6 mph31.5 kmh 30.12 in1020.0 mb - 0.00 in0.0 mm 0.00 in0.0 mm
05:35 PM 60.4°F15.8°C 48.6°F9.2°C 65% 9.2 mph W14.8 kmh W 17.3 mph27.8 kmh 30.12 in1020.0 mb - 0.00 in0.0 mm 0.00 in0.0 mm
05:40 PM 60.3°F15.7°C 48.5°F9.2°C 65% 10.4 mph WSW16.7 kmh WSW 16.1 mph25.9 kmh 30.12 in1020.0 mb - 0.00 in0.0 mm 0.00 in0.0 mm
05:45 PM 60.3°F15.7°C 48.1°F8.9°C 64% 9.2 mph W14.8 kmh W 13.8 mph22.2 kmh 30.12 in1020.0 mb - 0.00 in0.0 mm 0.00 in0.0 mm
05:50 PM 60.2°F15.7°C 48.4°F9.1°C 65% 10.4 mph WSW16.7 kmh WSW 13.8 mph22.2 kmh 30.12 in1020.0 mb - 0.00 in0.0 mm 0.00 in0.0 mm
05:55 PM 60.1°F15.6°C 48.3°F9.1°C 65% 10.4 mph WSW16.7 kmh WSW 17.3 mph27.8 kmh 30.12 in1020.0 mb - 0.00 in0.0 mm 0.00 in0.0 mm
06:00 PM 60.0°F15.6°C 47.8°F8.8°C 64% 8.1 mph WSW13.0 kmh WSW 9.2 mph14.8 kmh 30.12 in1020.0 mb - 0.00 in0.0 mm 0.00 in0.0 mm
06:05 PM 59.9°F15.5°C 48.1°F8.9°C 65% 10.4 mph WSW16.7 kmh WSW 12.7 mph20.4 kmh 30.12 in1020.0 mb - 0.00 in0.0 mm 0.00 in0.0 mm
06:10 PM 59.9°F15.5°C 48.1°F8.9°C 65% 8.1 mph WSW13.0 kmh WSW 13.8 mph22.2 kmh 30.12 in1020.0 mb - 0.00 in0.0 mm 0.00 in0.0 mm
06:15 PM 59.9°F15.5°C 48.5°F9.2°C 66% 8.1 mph WSW13.0 kmh WSW 12.7 mph20.4 kmh 30.11 in1019.6 mb - 0.00 in0.0 mm 0.00 in0.0 mm
06:20 PM 59.9°F15.5°C 48.6°F9.2°C 66% 11.5 mph WSW18.5 kmh WSW 18.4 mph29.6 kmh 30.11 in1019.6 mb - 0.00 in0.0 mm 0.00 in0.0 mm
06:25 PM 59.9°F15.5°C 48.5°F9.2°C 66% 9.2 mph WSW14.8 kmh WSW 11.5 mph18.5 kmh 30.11 in1019.6 mb - 0.00 in0.0 mm 0.00 in0.0 mm
06:30 PM 59.8°F15.4°C 48.4°F9.1°C 66% 9.2 mph WSW14.8 kmh WSW 12.7 mph20.4 kmh 30.11 in1019.6 mb - 0.00 in0.0 mm 0.00 in0.0 mm
06:35 PM 59.8°F15.4°C 48.8°F9.3°C 67% 11.5 mph WSW18.5 kmh WSW 15.0 mph24.1 kmh 30.11 in1019.6 mb - 0.00 in0.0 mm 0.00 in0.0 mm
06:40 PM 59.6°F15.3°C 48.6°F9.2°C 67% 9.2 mph WSW14.8 kmh WSW 12.7 mph20.4 kmh 30.11 in1019.6 mb - 0.00 in0.0 mm 0.00 in0.0 mm
06:45 PM 59.4°F15.2°C 48.9°F9.4°C 68% 8.1 mph WSW13.0 kmh WSW 11.5 mph18.5 kmh 30.11 in1019.6 mb - 0.00 in0.0 mm 0.00 in0.0 mm
06:50 PM 59.2°F15.1°C 48.6°F9.2°C 68% 10.4 mph WSW16.7 kmh WSW 15.0 mph24.1 kmh 30.11 in1019.6 mb - 0.00 in0.0 mm 0.00 in0.0 mm
06:55 PM 58.9°F14.9°C 48.3°F9.1°C 68% 8.1 mph WSW13.0 kmh WSW 11.5 mph18.5 kmh 30.11 in1019.6 mb - 0.00 in0.0 mm 0.00 in0.0 mm
07:00 PM 58.7°F14.8°C 48.6°F9.2°C 69% 9.2 mph WSW14.8 kmh WSW 13.8 mph22.2 kmh 30.11 in1019.6 mb - 0.00 in0.0 mm 0.00 in0.0 mm
07:05 PM 58.6°F14.8°C 48.5°F9.2°C 69% 8.1 mph WSW13.0 kmh WSW 12.7 mph20.4 kmh 30.11 in1019.6 mb - 0.00 in0.0 mm 0.00 in0.0 mm
07:10 PM 58.6°F14.8°C 48.5°F9.2°C 69% 8.1 mph WSW13.0 kmh WSW 12.7 mph20.4 kmh 30.11 in1019.6 mb - 0.00 in0.0 mm 0.00 in0.0 mm
07:15 PM 58.6°F14.8°C 48.5°F9.2°C 69% 8.1 mph W13.0 kmh W 13.8 mph22.2 kmh 30.11 in1019.6 mb - 0.00 in0.0 mm 0.00 in0.0 mm
07:20 PM 58.5°F14.7°C 48.7°F9.3°C 70% 6.9 mph WSW11.1 kmh WSW 11.5 mph18.5 kmh 30.11 in1019.6 mb - 0.00 in0.0 mm 0.00 in0.0 mm
07:25 PM 58.3°F14.6°C 48.6°F9.2°C 70% 6.9 mph WSW11.1 kmh WSW 11.5 mph18.5 kmh 30.11 in1019.6 mb - 0.00 in0.0 mm 0.00 in0.0 mm
07:30 PM 58.1°F14.5°C 48.7°F9.3°C 71% 8.1 mph WSW13.0 kmh WSW 11.5 mph18.5 kmh 30.11 in1019.6 mb - 0.00 in0.0 mm 0.00 in0.0 mm
07:35 PM 57.9°F14.4°C 48.6°F9.2°C 71% 8.1 mph WSW13.0 kmh WSW 9.2 mph14.8 kmh 30.12 in1020.0 mb - 0.00 in0.0 mm 0.00 in0.0 mm
07:40 PM 57.8°F14.3°C 48.5°F9.2°C 71% 6.9 mph WSW11.1 kmh WSW 11.5 mph18.5 kmh 30.12 in1020.0 mb - 0.00 in0.0 mm 0.00 in0.0 mm
07:45 PM 57.7°F14.3°C 48.4°F9.1°C 71% 6.9 mph WSW11.1 kmh WSW 11.5 mph18.5 kmh 30.12 in1020.0 mb - 0.00 in0.0 mm 0.00 in0.0 mm
07:50 PM 57.7°F14.3°C 48.7°F9.3°C 72% 8.1 mph WSW13.0 kmh WSW 10.4 mph16.7 kmh 30.12 in1020.0 mb - 0.00 in0.0 mm 0.00 in0.0 mm
07:55 PM 57.6°F14.2°C 48.6°F9.2°C 72% 6.9 mph WSW11.1 kmh WSW 8.1 mph13.0 kmh 30.12 in1020.0 mb - 0.00 in0.0 mm 0.00 in0.0 mm
08:00 PM 57.6°F14.2°C 48.6°F9.2°C 72% 5.8 mph WSW9.3 kmh WSW 11.5 mph18.5 kmh 30.12 in1020.0 mb - 0.00 in0.0 mm 0.00 in0.0 mm
08:05 PM 57.6°F14.2°C 48.6°F9.2°C 72% 5.8 mph WSW9.3 kmh WSW 11.5 mph18.5 kmh 30.12 in1020.0 mb - 0.00 in0.0 mm 0.00 in0.0 mm
08:10 PM 57.5°F14.2°C 48.5°F9.2°C 72% 8.1 mph WSW13.0 kmh WSW 15.0 mph24.1 kmh 30.12 in1020.0 mb - 0.00 in0.0 mm 0.00 in0.0 mm
08:15 PM 57.4°F14.1°C 48.4°F9.1°C 72% 8.1 mph WSW13.0 kmh WSW 10.4 mph16.7 kmh 30.12 in1020.0 mb - 0.00 in0.0 mm 0.00 in0.0 mm
08:20 PM 57.3°F14.1°C 48.3°F9.1°C 72% 5.8 mph WSW9.3 kmh WSW 9.2 mph14.8 kmh 30.12 in1020.0 mb - 0.00 in0.0 mm 0.00 in0.0 mm
08:25 PM 57.3°F14.1°C 48.3°F9.1°C 72% 5.8 mph WSW9.3 kmh WSW 10.4 mph16.7 kmh 30.12 in1020.0 mb - 0.00 in0.0 mm 0.00 in0.0 mm
08:30 PM 57.2°F14.0°C 48.6°F9.2°C 73% 5.8 mph WSW9.3 kmh WSW 8.1 mph13.0 kmh 30.13 in1020.3 mb - 0.00 in0.0 mm 0.00 in0.0 mm
08:35 PM 57.1°F13.9°C 48.5°F9.2°C 73% 6.9 mph WSW11.1 kmh WSW 10.4 mph16.7 kmh 30.13 in1020.3 mb - 0.00 in0.0 mm 0.00 in0.0 mm
08:40 PM 57.1°F13.9°C 48.5°F9.2°C 73% 5.8 mph WSW9.3 kmh WSW 11.5 mph18.5 kmh 30.13 in1020.3 mb - 0.00 in0.0 mm 0.00 in0.0 mm
08:45 PM 57.1°F13.9°C 48.5°F9.2°C 73% 4.6 mph WSW7.4 kmh WSW 9.2 mph14.8 kmh 30.12 in1020.0 mb - 0.00 in0.0 mm 0.00 in0.0 mm
08:50 PM 57.0°F13.9°C 48.4°F9.1°C 73% 4.6 mph WSW7.4 kmh WSW 8.1 mph13.0 kmh 30.13 in1020.3 mb - 0.00 in0.0 mm 0.00 in0.0 mm
08:55 PM 57.0°F13.9°C 48.8°F9.3°C 74% 6.9 mph WSW11.1 kmh WSW 8.1 mph13.0 kmh 30.12 in1020.0 mb - 0.00 in0.0 mm 0.00 in0.0 mm
09:00 PM 56.9°F13.8°C 48.7°F9.3°C 74% 4.6 mph WSW7.4 kmh WSW 4.6 mph7.4 kmh 30.12 in1020.0 mb - 0.00 in0.0 mm 0.00 in0.0 mm
09:05 PM 56.9°F13.8°C 48.7°F9.3°C 74% 4.6 mph WSW7.4 kmh WSW 9.2 mph14.8 kmh 30.13 in1020.3 mb - 0.00 in0.0 mm 0.00 in0.0 mm
09:10 PM 56.9°F13.8°C 48.7°F9.3°C 74% 4.6 mph WSW7.4 kmh WSW 10.4 mph16.7 kmh 30.13 in1020.3 mb - 0.00 in0.0 mm 0.00 in0.0 mm
09:15 PM 56.8°F13.8°C 48.6°F9.2°C 74% 3.5 mph W5.6 kmh W 6.9 mph11.1 kmh 30.13 in1020.3 mb - 0.00 in0.0 mm 0.00 in0.0 mm
09:20 PM 56.8°F13.8°C 49.0°F9.4°C 75% 4.6 mph WSW7.4 kmh WSW 6.9 mph11.1 kmh 30.13 in1020.3 mb - 0.00 in0.0 mm 0.00 in0.0 mm
09:25 PM 56.8°F13.8°C 49.0°F9.4°C 75% 4.6 mph WSW7.4 kmh WSW 8.1 mph13.0 kmh 30.13 in1020.3 mb - 0.00 in0.0 mm 0.00 in0.0 mm
09:30 PM 56.7°F13.7°C 48.5°F9.2°C 74% 4.6 mph WSW7.4 kmh WSW 3.5 mph5.6 kmh 30.13 in1020.3 mb - 0.00 in0.0 mm 0.00 in0.0 mm
09:35 PM 56.7°F13.7°C 48.5°F9.2°C 74% 5.8 mph WSW9.3 kmh WSW 6.9 mph11.1 kmh 30.13 in1020.3 mb - 0.00 in0.0 mm 0.00 in0.0 mm
09:40 PM 56.6°F13.7°C 48.8°F9.3°C 75% 4.6 mph WSW7.4 kmh WSW 10.4 mph16.7 kmh 30.13 in1020.3 mb - 0.00 in0.0 mm 0.00 in0.0 mm
09:45 PM 56.6°F13.7°C 48.4°F9.1°C 74% 3.5 mph WSW5.6 kmh WSW 8.1 mph13.0 kmh 30.13 in1020.3 mb - 0.00 in0.0 mm 0.00 in0.0 mm
09:50 PM 56.6°F13.7°C 48.4°F9.1°C 74% 4.6 mph WSW7.4 kmh WSW 11.5 mph18.5 kmh 30.12 in1020.0 mb - 0.00 in0.0 mm 0.00 in0.0 mm
09:55 PM 56.6°F13.7°C 48.4°F9.1°C 74% 4.6 mph WSW7.4 kmh WSW 9.2 mph14.8 kmh 30.12 in1020.0 mb - 0.00 in0.0 mm 0.00 in0.0 mm
10:00 PM 56.6°F13.7°C 48.0°F8.9°C 73% 4.6 mph WSW7.4 kmh WSW 11.5 mph18.5 kmh 30.12 in1020.0 mb - 0.00 in0.0 mm 0.00 in0.0 mm
10:05 PM 56.7°F13.7°C 48.1°F8.9°C 73% 6.9 mph WSW11.1 kmh WSW 10.4 mph16.7 kmh 30.12 in1020.0 mb - 0.00 in0.0 mm 0.00 in0.0 mm
10:10 PM 56.7°F13.7°C 48.5°F9.2°C 74% 6.9 mph WSW11.1 kmh WSW 8.1 mph13.0 kmh 30.12 in1020.0 mb - 0.00 in0.0 mm 0.00 in0.0 mm
10:15 PM 56.7°F13.7°C 48.5°F9.2°C 74% 4.6 mph SW7.4 kmh SW 8.1 mph13.0 kmh 30.12 in1020.0 mb - 0.00 in0.0 mm 0.00 in0.0 mm
10:20 PM 56.6°F13.7°C 48.4°F9.1°C 74% 6.9 mph WSW11.1 kmh WSW 15.0 mph24.1 kmh 30.12 in1020.0 mb - 0.00 in0.0 mm 0.00 in0.0 mm
10:25 PM 56.6°F13.7°C 48.4°F9.1°C 74% 6.9 mph WSW11.1 kmh WSW 9.2 mph14.8 kmh 30.12 in1020.0 mb - 0.00 in0.0 mm 0.00 in0.0 mm
10:30 PM 56.6°F13.7°C 48.4°F9.1°C 74% 8.1 mph WSW13.0 kmh WSW 15.0 mph24.1 kmh 30.12 in1020.0 mb - 0.00 in0.0 mm 0.00 in0.0 mm
10:35 PM 56.6°F13.7°C 48.4°F9.1°C 74% 8.1 mph WSW13.0 kmh WSW 11.5 mph18.5 kmh 30.12 in1020.0 mb - 0.00 in0.0 mm 0.00 in0.0 mm
10:40 PM 56.5°F13.6°C 48.3°F9.1°C 74% 6.9 mph WSW11.1 kmh WSW 10.4 mph16.7 kmh 30.12 in1020.0 mb - 0.00 in0.0 mm 0.00 in0.0 mm
10:45 PM 56.5°F13.6°C 48.7°F9.3°C 75% 8.1 mph WSW13.0 kmh WSW 16.1 mph25.9 kmh 30.12 in1020.0 mb - 0.00 in0.0 mm 0.00 in0.0 mm
10:50 PM 56.4°F13.6°C 48.6°F9.2°C 75% 8.1 mph WSW13.0 kmh WSW 11.5 mph18.5 kmh 30.11 in1019.6 mb - 0.00 in0.0 mm 0.00 in0.0 mm
10:55 PM 56.4°F13.6°C 48.6°F9.2°C 75% 10.4 mph WSW16.7 kmh WSW 11.5 mph18.5 kmh 30.11 in1019.6 mb - 0.00 in0.0 mm 0.00 in0.0 mm
11:00 PM 56.3°F13.5°C 48.5°F9.2°C 75% 9.2 mph W14.8 kmh W 11.5 mph18.5 kmh 30.11 in1019.6 mb - 0.00 in0.0 mm 0.00 in0.0 mm
11:05 PM 56.3°F13.5°C 48.5°F9.2°C 75% 6.9 mph WSW11.1 kmh WSW 10.4 mph16.7 kmh 30.11 in1019.6 mb - 0.00 in0.0 mm 0.00 in0.0 mm
11:10 PM 56.2°F13.4°C 48.3°F9.1°C 75% 9.2 mph WSW14.8 kmh WSW 16.1 mph25.9 kmh 30.11 in1019.6 mb - 0.00 in0.0 mm 0.00 in0.0 mm
11:15 PM 56.1°F13.4°C 48.6°F9.2°C 76% 8.1 mph WSW13.0 kmh WSW 11.5 mph18.5 kmh 30.11 in1019.6 mb - 0.00 in0.0 mm 0.00 in0.0 mm
11:20 PM 56.1°F13.4°C 48.7°F9.3°C 76% 8.1 mph WSW13.0 kmh WSW 11.5 mph18.5 kmh 30.11 in1019.6 mb - 0.00 in0.0 mm 0.00 in0.0 mm
11:25 PM 56.2°F13.4°C 48.7°F9.3°C 76% 8.1 mph W13.0 kmh W 11.5 mph18.5 kmh 30.11 in1019.6 mb - 0.00 in0.0 mm 0.00 in0.0 mm
11:30 PM 56.1°F13.4°C 48.7°F9.3°C 76% 10.4 mph WSW16.7 kmh WSW 12.7 mph20.4 kmh 30.11 in1019.6 mb - 0.00 in0.0 mm 0.00 in0.0 mm
11:35 PM 56.1°F13.4°C 49.0°F9.4°C 77% 5.8 mph W9.3 kmh W 11.5 mph18.5 kmh 30.11 in1019.6 mb - 0.00 in0.0 mm 0.00 in0.0 mm
11:40 PM 56.1°F13.4°C 49.0°F9.4°C 77% 10.4 mph W16.7 kmh W 17.3 mph27.8 kmh 30.11 in1019.6 mb - 0.00 in0.0 mm 0.00 in0.0 mm
11:45 PM 56.1°F13.4°C 49.3°F9.6°C 78% 5.8 mph WSW9.3 kmh WSW 8.1 mph13.0 kmh 30.11 in1019.6 mb - 0.00 in0.0 mm 0.00 in0.0 mm
11:50 PM 56.1°F13.4°C 49.3°F9.6°C 78% 5.8 mph WSW9.3 kmh WSW 9.2 mph14.8 kmh 30.11 in1019.6 mb - 0.00 in0.0 mm 0.00 in0.0 mm
11:55 PM 56.1°F13.4°C 49.3°F9.6°C 78% 5.8 mph WSW9.3 kmh WSW 9.2 mph14.8 kmh 30.12 in1020.0 mb - 0.00 in0.0 mm 0.00 in0.0 mm